createdAt,value
2019-03-03T00:00:59.213Z,0
2019-03-03T00:01:59.341Z,0
2019-03-03T00:03:00.749Z,0
2019-03-03T00:04:01.436Z,0
2019-03-03T00:05:02.413Z,0
2019-03-03T00:06:02.779Z,0
2019-03-03T00:07:03.186Z,0
2019-03-03T00:08:04.427Z,0
2019-03-03T00:09:05.112Z,0
2019-03-03T00:10:06.798Z,0
2019-03-03T00:11:06.765Z,0
2019-03-03T00:12:07.891Z,0
2019-03-03T00:13:09.296Z,0
2019-03-03T00:14:09.455Z,0
2019-03-03T00:15:10.130Z,0
2019-03-03T00:16:10.661Z,0
2019-03-03T00:17:11.623Z,0
2019-03-03T00:18:12.027Z,0
2019-03-03T00:19:12.438Z,0
2019-03-03T00:20:12.845Z,0
2019-03-03T00:21:13.250Z,0
2019-03-03T00:22:13.656Z,0
2019-03-03T00:23:14.789Z,0
2019-03-03T00:24:15.922Z,0
2019-03-03T00:25:16.880Z,0
2019-03-03T00:26:18.253Z,0
2019-03-03T00:27:19.212Z,0
2019-03-03T00:28:18.918Z,0
2019-03-03T00:29:19.608Z,0
2019-03-03T00:30:20.297Z,0
2019-03-03T00:31:20.976Z,0
2019-03-03T00:32:22.219Z,0
2019-03-03T00:33:23.183Z,0
2019-03-03T00:34:23.311Z,0
2019-03-03T00:35:24.999Z,0
2019-03-03T00:36:26.418Z,0
2019-03-03T00:37:27.104Z,0
2019-03-03T00:38:27.512Z,0
2019-03-03T00:39:28.237Z,0
2019-03-03T00:40:28.700Z,0
2019-03-03T00:41:28.830Z,0
2019-03-03T00:42:29.241Z,0
2019-03-03T00:43:29.647Z,0
2019-03-03T00:44:31.054Z,0
2019-03-03T00:45:31.745Z,0
2019-03-03T00:46:32.559Z,0
2019-03-03T00:47:33.067Z,0
2019-03-03T00:48:33.195Z,0
2019-03-03T00:49:35.158Z,0
2019-03-03T00:50:35.846Z,0
2019-03-03T00:51:35.976Z,0
2019-03-03T00:52:36.972Z,0
2019-03-03T00:53:37.378Z,0
2019-03-03T00:54:38.111Z,0
2019-03-03T00:55:39.241Z,0
2019-03-03T00:56:40.069Z,0
2019-03-03T00:57:41.584Z,0
2019-03-03T00:58:41.992Z,0
2019-03-03T00:59:42.966Z,0
2019-03-03T01:00:43.095Z,0
2019-03-03T01:01:45.057Z,0
2019-03-03T01:02:44.746Z,0
2019-03-03T01:03:45.426Z,0
2019-03-03T01:04:46.857Z,0
2019-03-03T01:05:47.819Z,0
2019-03-03T01:06:48.624Z,0
2019-03-03T01:07:49.311Z,0
2019-03-03T01:08:49.436Z,0
2019-03-03T01:09:51.171Z,0
2019-03-03T01:10:51.861Z,0
2019-03-03T01:11:53.268Z,0
2019-03-03T01:12:54.230Z,0
2019-03-03T01:13:57.063Z,0
2019-03-03T01:14:56.031Z,0
2019-03-03T01:15:57.161Z,0
2019-03-03T01:16:57.412Z,0
2019-03-03T01:17:58.819Z,0
2019-03-03T01:19:00.070Z,0
2019-03-03T01:20:00.263Z,0
2019-03-03T01:21:00.943Z,0
2019-03-03T01:22:01.938Z,0
2019-03-03T01:23:04.839Z,0
2019-03-03T01:24:05.803Z,0
2019-03-03T01:25:06.216Z,0
2019-03-03T01:26:06.616Z,0
2019-03-03T01:27:07.145Z,0
2019-03-03T01:28:07.551Z,0
2019-03-03T01:29:09.513Z,0
2019-03-03T01:30:08.922Z,0
2019-03-03T01:31:09.326Z,0
2019-03-03T01:32:10.734Z,0
2019-03-03T01:33:11.140Z,0
2019-03-03T01:34:12.382Z,0
2019-03-03T01:35:13.347Z,0
2019-03-03T01:36:14.312Z,0
2019-03-03T01:37:15.433Z,0
2019-03-03T01:38:15.842Z,0
2019-03-03T01:39:16.249Z,0
2019-03-03T01:40:17.380Z,0
2019-03-03T01:41:18.510Z,0
2019-03-03T01:42:19.915Z,0
2019-03-03T01:43:20.323Z,0
2019-03-03T01:44:20.728Z,0
2019-03-03T01:45:22.411Z,0
2019-03-03T01:46:23.106Z,0
2019-03-03T01:47:24.550Z,0
2019-03-03T01:48:24.964Z,0
2019-03-03T01:49:25.650Z,0
2019-03-03T01:50:25.780Z,0
2019-03-03T01:51:26.744Z,0
2019-03-03T01:52:27.151Z,0
2019-03-03T01:53:28.598Z,0
2019-03-03T01:54:29.556Z,0
2019-03-03T01:55:29.964Z,0
2019-03-03T01:56:30.930Z,0
2019-03-03T01:57:31.360Z,0
2019-03-03T01:58:31.779Z,0
2019-03-03T01:59:33.467Z,0
2019-03-03T02:00:34.155Z,0
2019-03-03T02:01:33.854Z,0
2019-03-03T02:02:35.269Z,0
2019-03-03T02:03:35.972Z,0
2019-03-03T02:04:36.441Z,0
2019-03-03T02:05:36.855Z,0
2019-03-03T02:06:38.545Z,0
2019-03-03T02:07:38.666Z,0
2019-03-03T02:08:40.078Z,0
2019-03-03T02:09:41.050Z,0
2019-03-03T02:10:41.748Z,0
2019-03-03T02:11:42.718Z,0
2019-03-03T02:12:42.684Z,0
2019-03-03T02:13:43.418Z,0
2019-03-03T02:14:43.669Z,0
2019-03-03T02:15:44.361Z,0
2019-03-03T02:16:45.359Z,0
2019-03-03T02:17:45.486Z,0
2019-03-03T02:18:46.660Z,0
2019-03-03T02:19:47.078Z,0
2019-03-03T02:20:47.765Z,0
2019-03-03T02:21:48.455Z,0
2019-03-03T02:22:48.618Z,0
2019-03-03T02:23:49.032Z,0
2019-03-03T02:24:50.452Z,0
2019-03-03T02:25:51.145Z,0
2019-03-03T02:26:51.560Z,0
2019-03-03T02:27:51.826Z,0
2019-03-03T02:28:53.239Z,0
2019-03-03T02:29:53.372Z,0
2019-03-03T02:30:54.391Z,0
2019-03-03T02:31:55.406Z,0
2019-03-03T02:32:56.383Z,0
2019-03-03T02:33:57.641Z,0
2019-03-03T02:34:58.196Z,0
2019-03-03T02:35:58.463Z,0
2019-03-03T02:36:59.026Z,0
2019-03-03T02:38:00.302Z,0
2019-03-03T02:39:00.723Z,0
2019-03-03T02:40:02.397Z,0
2019-03-03T02:41:02.438Z,0
2019-03-03T02:42:02.991Z,0
2019-03-03T02:43:04.142Z,0
2019-03-03T02:44:04.159Z,0
2019-03-03T02:45:05.417Z,0
2019-03-03T02:46:06.240Z,0
2019-03-03T02:47:06.548Z,0
2019-03-03T02:48:07.243Z,0
2019-03-03T02:49:07.509Z,0
2019-03-03T02:50:09.032Z,0
2019-03-03T02:51:10.560Z,0
2019-03-03T02:52:10.817Z,0
2019-03-03T02:53:11.066Z,0
2019-03-03T02:54:11.312Z,0
2019-03-03T02:55:11.567Z,0
2019-03-03T02:56:12.102Z,0
2019-03-03T02:57:12.802Z,0
2019-03-03T02:58:13.775Z,0
2019-03-03T02:59:14.219Z,0
2019-03-03T03:00:16.610Z,0
2019-03-03T03:01:16.305Z,0
2019-03-03T03:02:17.554Z,0
2019-03-03T03:03:18.079Z,0
2019-03-03T03:04:18.625Z,0
2019-03-03T03:05:19.184Z,0
2019-03-03T03:06:20.006Z,0
2019-03-03T03:07:19.991Z,0
2019-03-03T03:08:20.823Z,0
2019-03-03T03:09:20.802Z,0
2019-03-03T03:10:21.892Z,0
2019-03-03T03:11:22.806Z,0
2019-03-03T03:12:23.781Z,0
2019-03-03T03:13:24.762Z,0
2019-03-03T03:14:27.118Z,0
2019-03-03T03:15:28.203Z,0
2019-03-03T03:16:28.737Z,0
2019-03-03T03:17:29.160Z,0
2019-03-03T03:18:30.695Z,0
2019-03-03T03:19:30.683Z,0
2019-03-03T03:20:31.686Z,0
2019-03-03T03:21:32.988Z,0
2019-03-03T03:22:34.871Z,0
2019-03-03T03:23:34.401Z,0
2019-03-03T03:24:34.649Z,0
2019-03-03T03:25:35.618Z,0
2019-03-03T03:26:35.877Z,0
2019-03-03T03:27:37.121Z,0
2019-03-03T03:28:37.273Z,0
2019-03-03T03:29:38.249Z,0
2019-03-03T03:30:40.419Z,0
2019-03-03T03:31:40.462Z,0
2019-03-03T03:32:40.747Z,0
2019-03-03T03:33:41.861Z,0
2019-03-03T03:34:42.439Z,0
2019-03-03T03:35:43.336Z,0
2019-03-03T03:36:44.340Z,0
2019-03-03T03:37:45.316Z,0
2019-03-03T03:38:46.579Z,0
2019-03-03T03:39:46.562Z,0
2019-03-03T03:40:46.980Z,0
2019-03-03T03:41:48.235Z,0
2019-03-03T03:42:49.490Z,0
2019-03-03T03:43:50.518Z,0
2019-03-03T03:44:50.767Z,0
2019-03-03T03:45:52.048Z,0
2019-03-03T03:46:52.860Z,0
2019-03-03T03:47:52.558Z,0
2019-03-03T03:48:53.522Z,0
2019-03-03T03:49:54.148Z,0
2019-03-03T03:50:54.194Z,0
2019-03-03T03:51:57.033Z,0
2019-03-03T03:52:57.859Z,0
2019-03-03T03:53:58.405Z,0
2019-03-03T03:54:58.156Z,0
2019-03-03T03:55:59.144Z,0
2019-03-03T03:57:00.665Z,0
2019-03-03T03:58:01.488Z,0
2019-03-03T03:59:02.117Z,0
2019-03-03T04:00:02.658Z,0
2019-03-03T04:01:03.771Z,0
2019-03-03T04:02:04.143Z,0
2019-03-03T04:03:04.711Z,0
2019-03-03T04:04:05.519Z,0
2019-03-03T04:05:05.768Z,0
2019-03-03T04:06:07.297Z,0
2019-03-03T04:07:07.059Z,0
2019-03-03T04:08:08.026Z,0
2019-03-03T04:09:09.145Z,0
2019-03-03T04:10:09.689Z,0
2019-03-03T04:11:10.710Z,0
2019-03-03T04:12:11.690Z,0
2019-03-03T04:13:12.120Z,0
2019-03-03T04:14:13.533Z,0
2019-03-03T04:15:14.335Z,0
2019-03-03T04:16:15.859Z,0
2019-03-03T04:17:16.384Z,0
2019-03-03T04:18:17.909Z,0
2019-03-03T04:19:17.904Z,0
2019-03-03T04:20:18.427Z,0
2019-03-03T04:21:18.701Z,0
2019-03-03T04:22:19.521Z,0
2019-03-03T04:23:20.358Z,0
2019-03-03T04:24:20.879Z,0
2019-03-03T04:25:21.876Z,0
2019-03-03T04:26:22.849Z,0
2019-03-03T04:27:23.144Z,0
2019-03-03T04:28:23.832Z,0
2019-03-03T04:29:24.539Z,0
2019-03-03T04:30:26.076Z,0
2019-03-03T04:31:26.638Z,0
2019-03-03T04:32:27.327Z,0
2019-03-03T04:33:28.579Z,0
2019-03-03T04:34:28.554Z,0
2019-03-03T04:35:28.963Z,0
2019-03-03T04:36:29.936Z,0
2019-03-03T04:37:30.494Z,0
2019-03-03T04:38:31.184Z,0
2019-03-03T04:39:31.726Z,0
2019-03-03T04:40:31.859Z,0
2019-03-03T04:41:33.551Z,0
2019-03-03T04:42:33.686Z,0
2019-03-03T04:43:34.822Z,0
2019-03-03T04:44:36.555Z,0
2019-03-03T04:45:37.248Z,0
2019-03-03T04:46:37.938Z,0
2019-03-03T04:47:38.672Z,0
2019-03-03T04:48:39.084Z,0
2019-03-03T04:49:40.056Z,0
2019-03-03T04:50:40.188Z,0
2019-03-03T04:51:41.156Z,0
2019-03-03T04:52:41.289Z,0
2019-03-03T04:53:42.258Z,0
2019-03-03T04:54:42.670Z,0
2019-03-03T04:55:43.468Z,0
2019-03-03T04:56:43.488Z,0
2019-03-03T04:57:43.899Z,0
2019-03-03T04:58:45.207Z,0
2019-03-03T04:59:45.042Z,0
2019-03-03T05:00:45.012Z,0
2019-03-03T05:01:46.705Z,0
2019-03-03T05:02:46.845Z,0
2019-03-03T05:03:47.533Z,0
2019-03-03T05:04:48.221Z,0
2019-03-03T05:05:48.633Z,0
2019-03-03T05:06:49.599Z,0
2019-03-03T05:07:50.289Z,0
2019-03-03T05:08:50.424Z,0
2019-03-03T05:09:51.240Z,0
2019-03-03T05:10:51.655Z,0
2019-03-03T05:11:52.625Z,0
2019-03-03T05:12:53.354Z,0
2019-03-03T05:13:54.045Z,0
2019-03-03T05:14:54.736Z,0
2019-03-03T05:15:55.427Z,0
2019-03-03T05:16:56.118Z,0
2019-03-03T05:17:57.107Z,0
2019-03-03T05:18:57.241Z,0
2019-03-03T05:19:57.924Z,0
2019-03-03T05:20:58.334Z,0
2019-03-03T05:21:59.028Z,0
2019-03-03T05:22:59.715Z,4
2019-03-03T05:24:00.403Z,4
2019-03-03T05:25:01.018Z,0
2019-03-03T05:26:02.270Z,4
2019-03-03T05:27:02.684Z,4
2019-03-03T05:28:04.214Z,4
2019-03-03T05:29:04.901Z,4
2019-03-03T05:29:49.624Z,4
2019-03-03T05:30:50.311Z,8
2019-03-03T05:31:51.002Z,8
2019-03-03T05:32:51.693Z,8
2019-03-03T05:33:52.665Z,12
2019-03-03T05:34:53.700Z,12
2019-03-03T05:35:53.945Z,12
2019-03-03T05:36:54.637Z,16
2019-03-03T05:37:54.772Z,20
2019-03-03T05:38:55.909Z,24
2019-03-03T05:39:57.161Z,32
2019-03-03T05:40:57.832Z,36
2019-03-03T05:41:58.551Z,44
2019-03-03T05:42:59.519Z,56
2019-03-03T05:44:00.215Z,64
2019-03-03T05:45:00.630Z,80
2019-03-03T05:46:01.323Z,88
2019-03-03T05:47:01.742Z,100
2019-03-03T05:48:02.766Z,116
2019-03-03T05:49:03.462Z,124
2019-03-03T05:50:04.160Z,132
2019-03-03T05:51:04.862Z,148
2019-03-03T05:52:05.561Z,168
2019-03-03T05:53:05.971Z,192
2019-03-03T05:54:06.392Z,204
2019-03-03T05:55:07.093Z,224
2019-03-03T05:56:08.227Z,244
2019-03-03T05:57:09.193Z,260
2019-03-03T05:58:09.335Z,280
2019-03-03T05:59:10.746Z,304
2019-03-03T06:00:11.188Z,328
2019-03-03T06:01:11.784Z,352
2019-03-03T06:02:12.200Z,384
2019-03-03T06:03:12.336Z,420
2019-03-03T06:04:13.309Z,452
2019-03-03T06:05:13.463Z,492
2019-03-03T06:06:14.155Z,532
2019-03-03T06:07:15.121Z,572
2019-03-03T06:08:15.536Z,608
2019-03-03T06:09:16.227Z,648
2019-03-03T06:10:15.922Z,684
2019-03-03T06:11:17.370Z,724
2019-03-03T06:12:17.781Z,764
2019-03-03T06:13:17.753Z,800
2019-03-03T06:14:19.171Z,840
2019-03-03T06:15:19.584Z,880
2019-03-03T06:16:19.997Z,920
2019-03-03T06:17:20.418Z,952
2019-03-03T06:18:21.555Z,1000
2019-03-03T06:19:22.257Z,1088
2019-03-03T06:20:23.230Z,1272
2019-03-03T06:21:23.783Z,1916
2019-03-03T06:22:24.203Z,3208
2019-03-03T06:23:24.940Z,3820
2019-03-03T06:24:26.205Z,3604
2019-03-03T06:25:28.046Z,2868
2019-03-03T06:26:27.576Z,2444
2019-03-03T06:27:28.044Z,2300
2019-03-03T06:28:28.738Z,3028
2019-03-03T06:29:30.157Z,2540
2019-03-03T06:30:30.593Z,2496
2019-03-03T06:31:31.011Z,3368
2019-03-03T06:32:31.706Z,6480
2019-03-03T06:33:32.124Z,9156
2019-03-03T06:34:33.423Z,9700
2019-03-03T06:35:34.124Z,10112
2019-03-03T06:36:34.825Z,11136
2019-03-03T06:37:35.522Z,8912
2019-03-03T06:38:35.663Z,6892
2019-03-03T06:39:36.638Z,6300
2019-03-03T06:40:37.370Z,9156
2019-03-03T06:41:38.203Z,7880
2019-03-03T06:42:38.628Z,5080
2019-03-03T06:43:39.376Z,10128
2019-03-03T06:44:39.813Z,16352
2019-03-03T06:45:41.063Z,18144
2019-03-03T06:46:41.767Z,13296
2019-03-03T06:47:42.463Z,11556
2019-03-03T06:48:42.882Z,8280
2019-03-03T06:49:44.303Z,9004
2019-03-03T06:50:45.277Z,13652
2019-03-03T06:51:45.829Z,17280
2019-03-03T06:52:46.806Z,14364
2019-03-03T06:53:46.998Z,11852
2019-03-03T06:54:47.697Z,11668
2019-03-03T06:55:48.122Z,9672
2019-03-03T06:56:48.826Z,11536
2019-03-03T06:57:50.128Z,12796
2019-03-03T06:58:51.106Z,10964
2019-03-03T06:59:52.077Z,9540
2019-03-03T07:00:52.497Z,9620
2019-03-03T07:01:53.629Z,8796
2019-03-03T07:02:54.322Z,6928
2019-03-03T07:03:55.023Z,4548
2019-03-03T07:04:55.743Z,4720
2019-03-03T07:05:56.439Z,6164
2019-03-03T07:06:56.907Z,5068
2019-03-03T07:07:57.887Z,4824
2019-03-03T07:08:58.862Z,5436
2019-03-03T07:09:59.564Z,5020
2019-03-03T07:11:00.657Z,5468
2019-03-03T07:12:00.767Z,5524
2019-03-03T07:13:02.746Z,5532
2019-03-03T07:14:02.444Z,5808
2019-03-03T07:15:04.149Z,6292
2019-03-03T07:16:05.403Z,7116
2019-03-03T07:17:05.103Z,7120
2019-03-03T07:18:05.849Z,6360
2019-03-03T07:19:06.267Z,6372
2019-03-03T07:20:07.294Z,6900
2019-03-03T07:21:07.989Z,7396
2019-03-03T07:22:09.375Z,9476
2019-03-03T07:23:09.802Z,9236
2019-03-03T07:24:10.227Z,7700
2019-03-03T07:25:11.940Z,7960
2019-03-03T07:26:12.639Z,5784
2019-03-03T07:27:12.785Z,4580
2019-03-03T07:28:13.209Z,4292
2019-03-03T07:29:14.907Z,4220
2019-03-03T07:30:15.607Z,4064
2019-03-03T07:31:16.305Z,3992
2019-03-03T07:32:16.425Z,3996
2019-03-03T07:33:16.846Z,4052
2019-03-03T07:34:18.267Z,4184
2019-03-03T07:35:19.585Z,4260
2019-03-03T07:36:19.725Z,4340
2019-03-03T07:37:20.478Z,5108
2019-03-03T07:38:21.210Z,12408
2019-03-03T07:39:21.465Z,11068
2019-03-03T07:40:22.884Z,8680
2019-03-03T07:41:23.303Z,7084
2019-03-03T07:42:24.712Z,7732
2019-03-03T07:43:25.410Z,9512
2019-03-03T07:44:25.905Z,9888
2019-03-03T07:45:26.331Z,12460
2019-03-03T07:46:27.061Z,14240
2019-03-03T07:47:27.205Z,14892
2019-03-03T07:48:28.903Z,20992
2019-03-03T07:49:29.328Z,22304
2019-03-03T07:50:30.747Z,16192
2019-03-03T07:51:31.170Z,18592
2019-03-03T07:52:34.217Z,23456
2019-03-03T07:53:32.917Z,20288
2019-03-03T07:54:33.377Z,15168
2019-03-03T07:55:33.809Z,15840
2019-03-03T07:56:34.230Z,19168
2019-03-03T07:57:35.650Z,21984
2019-03-03T07:58:35.804Z,22208
2019-03-03T07:59:36.787Z,20672
2019-03-03T08:00:37.770Z,17856
2019-03-03T08:01:38.752Z,18368
2019-03-03T08:02:39.311Z,21344
2019-03-03T08:03:39.740Z,16192
2019-03-03T08:04:40.448Z,17312
2019-03-03T08:05:41.154Z,21536
2019-03-03T08:06:41.894Z,23552
2019-03-03T08:07:42.050Z,22624
2019-03-03T08:08:43.317Z,23328
2019-03-03T08:09:44.302Z,26528
2019-03-03T08:10:44.734Z,35232
2019-03-03T08:11:45.450Z,33984
2019-03-03T08:12:46.340Z,38176
2019-03-03T08:13:47.046Z,39552
2019-03-03T08:14:47.203Z,36544
2019-03-03T08:15:48.186Z,32384
2019-03-03T08:16:48.612Z,30784
2019-03-03T08:17:49.607Z,29120
2019-03-03T08:18:50.315Z,23264
2019-03-03T08:19:51.019Z,16512
2019-03-03T08:20:51.163Z,16416
2019-03-03T08:21:51.877Z,17600
2019-03-03T08:22:53.042Z,19936
2019-03-03T08:23:53.496Z,17952
2019-03-03T08:24:54.221Z,22720
2019-03-03T08:25:54.924Z,22752
2019-03-03T08:26:56.074Z,19840
2019-03-03T08:27:56.796Z,15240
2019-03-03T08:28:57.224Z,15524
2019-03-03T08:29:58.658Z,17888
2019-03-03T08:30:59.646Z,18560
2019-03-03T08:31:59.797Z,16704
2019-03-03T08:33:00.639Z,15096
2019-03-03T08:34:01.345Z,16672
2019-03-03T08:35:01.593Z,16352
2019-03-03T08:36:02.596Z,16288
2019-03-03T08:37:03.630Z,17952
2019-03-03T08:38:04.893Z,17056
2019-03-03T08:39:05.319Z,15280
2019-03-03T08:40:05.793Z,11572
2019-03-03T08:41:06.220Z,10884
2019-03-03T08:42:07.372Z,11092
2019-03-03T08:43:08.234Z,11292
2019-03-03T08:44:08.709Z,10984
2019-03-03T08:45:09.694Z,11616
2019-03-03T08:46:10.120Z,14876
2019-03-03T08:47:11.382Z,13804
2019-03-03T08:48:11.536Z,19712
2019-03-03T08:49:13.239Z,17888
2019-03-03T08:50:13.952Z,18560
2019-03-03T08:51:14.661Z,16264
2019-03-03T08:52:15.645Z,24544
2019-03-03T08:53:16.766Z,24192
2019-03-03T08:54:17.751Z,21376
2019-03-03T08:55:18.456Z,26528
2019-03-03T08:56:18.888Z,33504
2019-03-03T08:57:19.870Z,39040
2019-03-03T08:58:20.021Z,43840
2019-03-03T08:59:21.007Z,48352
2019-03-03T09:00:21.451Z,56800
2019-03-03T09:01:21.882Z,63680
2019-03-03T09:02:22.873Z,69120
2019-03-03T09:03:23.253Z,60320
2019-03-03T09:04:24.005Z,56640
2019-03-03T09:05:25.276Z,41440
2019-03-03T09:06:25.706Z,34208
2019-03-03T09:07:26.861Z,31680
2019-03-03T09:08:28.589Z,22400
2019-03-03T09:09:28.740Z,35680
2019-03-03T09:10:30.170Z,40192
2019-03-03T09:11:30.882Z,40448
2019-03-03T09:12:32.316Z,46816
2019-03-03T09:13:34.013Z,31680
2019-03-03T09:14:34.437Z,34464
2019-03-03T09:15:34.873Z,50528
2019-03-03T09:16:36.030Z,63648
2019-03-03T09:17:37.015Z,20448
2019-03-03T09:18:37.834Z,11524
2019-03-03T09:19:37.263Z,15820
2019-03-03T09:20:38.421Z,15596
2019-03-03T09:21:39.129Z,14832
2019-03-03T09:22:39.837Z,20864
2019-03-03T09:23:40.534Z,15396
2019-03-03T09:24:41.802Z,9760
2019-03-03T09:25:42.231Z,10204
2019-03-03T09:26:42.699Z,28896
2019-03-03T09:27:43.131Z,50784
2019-03-03T09:28:44.838Z,58112
2019-03-03T09:29:45.263Z,33248
2019-03-03T09:30:45.418Z,15872
2019-03-03T09:31:46.568Z,35648
2019-03-03T09:32:47.829Z,59168
2019-03-03T09:33:50.402Z,63488
2019-03-03T09:34:49.403Z,53248
2019-03-03T09:35:50.391Z,47872
2019-03-03T09:36:51.383Z,42624
2019-03-03T09:37:52.093Z,48288
2019-03-03T09:38:53.116Z,51776
2019-03-03T09:39:53.269Z,51008
2019-03-03T09:40:53.724Z,53152
2019-03-03T09:41:54.156Z,51584
2019-03-03T09:42:55.585Z,57120
2019-03-03T09:43:56.710Z,60096
2019-03-03T09:44:57.142Z,58432
2019-03-03T09:45:57.575Z,58592
2019-03-03T09:46:59.294Z,51104
2019-03-03T09:47:59.727Z,43040
2019-03-03T09:49:00.206Z,44864
2019-03-03T09:50:00.528Z,42592
2019-03-03T09:51:01.826Z,37152
2019-03-03T09:52:02.539Z,30272
2019-03-03T09:53:03.804Z,37760
2019-03-03T09:54:04.100Z,40608
2019-03-03T09:55:05.364Z,27552
2019-03-03T09:56:05.818Z,10552
2019-03-03T09:57:06.533Z,9924
2019-03-03T09:58:06.964Z,11172
2019-03-03T09:59:08.119Z,28672
2019-03-03T10:00:08.553Z,23776
2019-03-03T10:01:09.262Z,23648
2019-03-03T10:02:09.970Z,21504
2019-03-03T10:03:11.403Z,19392
2019-03-03T10:04:11.987Z,21440
2019-03-03T10:05:13.137Z,19456
2019-03-03T10:06:15.122Z,24320
2019-03-03T10:07:16.385Z,23488
2019-03-03T10:08:15.815Z,28384
2019-03-03T10:09:16.802Z,34656
2019-03-03T10:10:17.233Z,35424
2019-03-03T10:11:17.662Z,38112
2019-03-03T10:12:18.817Z,39744
2019-03-03T10:13:19.543Z,28416
2019-03-03T10:14:20.944Z,18784
2019-03-03T10:15:22.205Z,30560
2019-03-03T10:16:22.911Z,51136
2019-03-03T10:17:23.343Z,50688
2019-03-03T10:18:24.891Z,51520
2019-03-03T10:19:25.323Z,49696
2019-03-03T10:20:25.755Z,52704
2019-03-03T10:21:26.742Z,53760
2019-03-03T10:22:26.731Z,53344
2019-03-03T10:23:27.717Z,51872
2019-03-03T10:24:28.699Z,52768
2019-03-03T10:25:29.691Z,52320
2019-03-03T10:26:29.846Z,48992
2019-03-03T10:27:30.836Z,52224
2019-03-03T10:28:30.825Z,53120
2019-03-03T10:29:31.538Z,51552
2019-03-03T10:30:33.245Z,51168
2019-03-03T10:31:33.403Z,51488
2019-03-03T10:32:34.117Z,50432
2019-03-03T10:33:35.856Z,48416
2019-03-03T10:34:36.429Z,45504
2019-03-03T10:35:37.192Z,51776
2019-03-03T10:36:37.905Z,51296
2019-03-03T10:37:38.343Z,50432
2019-03-03T10:38:39.359Z,50656
2019-03-03T10:39:40.070Z,47232
2019-03-03T10:40:41.337Z,48256
2019-03-03T10:41:42.061Z,50560
2019-03-03T10:42:42.775Z,51680
2019-03-03T10:43:44.321Z,48128
2019-03-03T10:44:45.175Z,50464
2019-03-03T10:45:46.168Z,50048
2019-03-03T10:46:46.607Z,49760
2019-03-03T10:47:46.769Z,35040
2019-03-03T10:48:47.200Z,44928
2019-03-03T10:49:48.681Z,46496
2019-03-03T10:50:49.115Z,50080
2019-03-03T10:51:50.107Z,48064
2019-03-03T10:52:50.653Z,45056
2019-03-03T10:53:51.389Z,38016
2019-03-03T10:54:51.967Z,45728
2019-03-03T10:55:52.678Z,45344
2019-03-03T10:56:54.389Z,43808
2019-03-03T10:57:54.822Z,40512
2019-03-03T10:58:55.254Z,40512
2019-03-03T10:59:56.949Z,40064
2019-03-03T11:00:57.662Z,40032
2019-03-03T11:01:58.427Z,36704
2019-03-03T11:02:59.413Z,36032
2019-03-03T11:03:59.356Z,38112
2019-03-03T11:05:00.290Z,38176
2019-03-03T11:06:01.001Z,34176
2019-03-03T11:07:01.997Z,34848
2019-03-03T11:08:02.274Z,32096
2019-03-03T11:09:03.265Z,29792
2019-03-03T11:10:03.983Z,29792
2019-03-03T11:11:04.718Z,29120
2019-03-03T11:12:05.149Z,27488
2019-03-03T11:13:05.305Z,27456
2019-03-03T11:14:07.926Z,23968
2019-03-03T11:15:07.353Z,25888
2019-03-03T11:15:20.231Z,26304
2019-03-03T11:16:20.421Z,26560
2019-03-03T11:17:20.577Z,26176
2019-03-03T11:18:21.842Z,22720
2019-03-03T11:19:22.276Z,23008
2019-03-03T11:20:23.433Z,22656
2019-03-03T11:21:25.141Z,19456
2019-03-03T11:22:25.297Z,19520
2019-03-03T11:23:27.010Z,20576
2019-03-03T11:24:27.444Z,21024
2019-03-03T11:25:28.167Z,18880
2019-03-03T11:26:28.573Z,17760
2019-03-03T11:27:29.326Z,19328
2019-03-03T11:28:30.035Z,19104
2019-03-03T11:29:31.026Z,17376
2019-03-03T11:30:31.766Z,16512
2019-03-03T11:31:32.779Z,14092
2019-03-03T11:32:33.214Z,12068
2019-03-03T11:33:34.427Z,14144
2019-03-03T11:34:35.751Z,14152
2019-03-03T11:35:36.188Z,13028
2019-03-03T11:36:36.759Z,14300
2019-03-03T11:37:36.918Z,16192
2019-03-03T11:38:37.905Z,17760
2019-03-03T11:39:38.063Z,19424
2019-03-03T11:40:40.052Z,17120
2019-03-03T11:41:40.318Z,14056
2019-03-03T11:42:41.028Z,11516
2019-03-03T11:43:41.737Z,11260
2019-03-03T11:44:42.450Z,12828
2019-03-03T11:45:42.602Z,12972
2019-03-03T11:46:43.368Z,10508
2019-03-03T11:47:44.073Z,10020
2019-03-03T11:48:44.226Z,10136
2019-03-03T11:49:45.687Z,10212
2019-03-03T11:50:47.539Z,10256
2019-03-03T11:51:47.691Z,10436
2019-03-03T11:52:48.443Z,10876
2019-03-03T11:53:48.604Z,12188
2019-03-03T11:54:49.860Z,13676
2019-03-03T11:55:50.852Z,12972
2019-03-03T11:56:51.136Z,12940
2019-03-03T11:57:51.571Z,12104
2019-03-03T11:58:53.000Z,12432
2019-03-03T11:59:53.707Z,12224
2019-03-03T12:00:53.862Z,11552
2019-03-03T12:01:55.300Z,11052
2019-03-03T12:02:56.291Z,12708
2019-03-03T12:03:56.442Z,12392
2019-03-03T12:04:57.597Z,12924
2019-03-03T12:05:59.030Z,13384
2019-03-03T12:06:59.432Z,12812
2019-03-03T12:07:59.975Z,13620
2019-03-03T12:09:00.524Z,12980
2019-03-03T12:10:01.291Z,14116
2019-03-03T12:11:02.016Z,13632
2019-03-03T12:12:03.287Z,14604
2019-03-03T12:13:03.997Z,15488
2019-03-03T12:14:05.039Z,14912
2019-03-03T12:15:05.746Z,13652
2019-03-03T12:16:06.199Z,15456
2019-03-03T12:17:07.050Z,17088
2019-03-03T12:18:07.763Z,18048
2019-03-03T12:19:08.202Z,19104
2019-03-03T12:20:08.911Z,18016
2019-03-03T12:21:09.634Z,17216
2019-03-03T12:22:10.080Z,16288
2019-03-03T12:23:11.512Z,14752
2019-03-03T12:24:11.942Z,13816
2019-03-03T12:25:12.377Z,12076
2019-03-03T12:26:14.642Z,11332
2019-03-03T12:27:14.769Z,12416
2019-03-03T12:28:14.759Z,12748
2019-03-03T12:29:15.913Z,12680
2019-03-03T12:30:17.622Z,12244
2019-03-03T12:31:17.609Z,11528
2019-03-03T12:32:18.319Z,11008
2019-03-03T12:33:18.751Z,9828
2019-03-03T12:34:19.468Z,10240
2019-03-03T12:35:20.897Z,9968
2019-03-03T12:36:21.883Z,10332
2019-03-03T12:37:21.861Z,10712
2019-03-03T12:38:22.333Z,10608
2019-03-03T12:39:23.339Z,10068
2019-03-03T12:40:23.766Z,11052
2019-03-03T12:41:24.486Z,12732
2019-03-03T12:42:25.476Z,13700
2019-03-03T12:43:25.908Z,15072
2019-03-03T12:44:27.072Z,14240
2019-03-03T12:45:28.056Z,13820
2019-03-03T12:46:28.211Z,13268
2019-03-03T12:47:29.624Z,14560
2019-03-03T12:48:30.330Z,14496
2019-03-03T12:49:31.040Z,15328
2019-03-03T12:50:32.303Z,14848
2019-03-03T12:51:32.734Z,15072
2019-03-03T12:52:33.446Z,15936
2019-03-03T12:53:33.878Z,17568
2019-03-03T12:54:34.864Z,21152
2019-03-03T12:55:35.854Z,22656
2019-03-03T12:56:36.007Z,21408
2019-03-03T12:57:37.770Z,16704
2019-03-03T12:58:38.204Z,15680
2019-03-03T12:59:38.914Z,15264
2019-03-03T13:00:39.671Z,13656
2019-03-03T13:01:40.102Z,13336
2019-03-03T13:02:40.816Z,13112
2019-03-03T13:03:42.246Z,12644
2019-03-03T13:04:43.233Z,12488
2019-03-03T13:05:43.666Z,13024
2019-03-03T13:06:44.665Z,13360
2019-03-03T13:07:45.085Z,13232
2019-03-03T13:08:45.817Z,12608
2019-03-03T13:09:46.529Z,11996
2019-03-03T13:10:48.086Z,9452
2019-03-03T13:11:47.794Z,8088
2019-03-03T13:12:48.946Z,10728
2019-03-03T13:13:50.260Z,10272
2019-03-03T13:14:50.413Z,10624
2019-03-03T13:15:52.135Z,12496
2019-03-03T13:16:52.846Z,12524
2019-03-03T13:17:54.254Z,13128
2019-03-03T13:18:54.241Z,13180
2019-03-03T13:19:54.947Z,11460
2019-03-03T13:20:55.384Z,10352
2019-03-03T13:21:56.808Z,11280
2019-03-03T13:22:57.810Z,13824
2019-03-03T13:23:57.837Z,12192
2019-03-03T13:24:58.548Z,14464
2019-03-03T13:25:59.809Z,13688
2019-03-03T13:27:00.244Z,13852
2019-03-03T13:28:01.091Z,12620
2019-03-03T13:29:01.853Z,12660
2019-03-03T13:30:02.839Z,12348
2019-03-03T13:31:03.549Z,13308
2019-03-03T13:32:03.541Z,12752
2019-03-03T13:33:05.529Z,10416
2019-03-03T13:34:06.235Z,10968
2019-03-03T13:35:06.942Z,11092
2019-03-03T13:36:08.510Z,9036
2019-03-03T13:37:09.503Z,8616
2019-03-03T13:38:09.902Z,8328
2019-03-03T13:39:10.611Z,8092
2019-03-03T13:40:10.762Z,7088
2019-03-03T13:41:12.194Z,6420
2019-03-03T13:42:12.342Z,6144
2019-03-03T13:43:13.772Z,6200
2019-03-03T13:44:14.758Z,6208
2019-03-03T13:45:15.753Z,6268
2019-03-03T13:46:15.904Z,6164
2019-03-03T13:47:16.368Z,5780
2019-03-03T13:48:16.927Z,5624
2019-03-03T13:49:17.356Z,5948
2019-03-03T13:50:17.802Z,6164
2019-03-03T13:51:18.504Z,5616